createdAt,value
2022-12-09T00:01:50.566Z,1.90
2022-12-09T00:04:18.672Z,1.80
2022-12-09T00:06:46.699Z,1.90
2022-12-09T00:09:16.271Z,2.00
2022-12-09T00:11:44.759Z,2.00
2022-12-09T00:14:13.041Z,2.00
2022-12-09T00:16:42.409Z,1.90
2022-12-09T00:19:11.027Z,1.80
2022-12-09T00:21:39.036Z,1.90
2022-12-09T00:24:08.972Z,1.80
2022-12-09T00:26:37.111Z,1.80
2022-12-09T00:29:05.080Z,1.80
2022-12-09T00:31:35.663Z,1.70
2022-12-09T00:34:06.886Z,1.70
2022-12-09T00:36:35.844Z,1.70
2022-12-09T00:39:06.642Z,1.70
2022-12-09T00:41:34.602Z,1.60
2022-12-09T00:44:02.825Z,1.60
2022-12-09T00:46:31.039Z,1.60
2022-12-09T00:48:59.313Z,1.40
2022-12-09T00:51:29.020Z,1.40
2022-12-09T00:53:57.186Z,1.40
2022-12-09T00:56:28.321Z,1.40
2022-12-09T00:58:57.059Z,1.40
2022-12-09T01:01:25.929Z,1.40
2022-12-09T01:03:54.433Z,1.30
2022-12-09T01:06:25.159Z,1.30
2022-12-09T01:08:55.215Z,1.20
2022-12-09T01:11:25.931Z,1.20
2022-12-09T01:13:54.685Z,1.30
2022-12-09T01:16:25.968Z,1.40
2022-12-09T01:18:57.549Z,1.30
2022-12-09T01:21:25.580Z,1.20
2022-12-09T01:23:54.848Z,1.30
2022-12-09T01:26:23.167Z,1.20
2022-12-09T01:28:52.915Z,1.10
2022-12-09T01:31:24.907Z,1.00
2022-12-09T01:33:54.799Z,1.10
2022-12-09T01:36:25.105Z,1.10
2022-12-09T01:38:54.875Z,1.20
2022-12-09T01:41:24.126Z,1.00
2022-12-09T01:44:08.768Z,1.10
2022-12-09T11:20:37.714Z,0.30
2022-12-09T11:23:14.765Z,2.20
2022-12-09T11:25:54.801Z,2.10
2022-12-09T11:28:29.310Z,2.00
2022-12-09T11:31:28.211Z,2.00
2022-12-09T11:33:56.971Z,2.10
2022-12-09T11:36:30.997Z,2.00
2022-12-09T11:39:11.777Z,2.00
2022-12-09T11:42:02.812Z,2.10
2022-12-09T11:44:33.212Z,2.10
2022-12-09T11:47:03.693Z,1.90
2022-12-09T11:49:35.632Z,1.90
2022-12-09T11:52:21.113Z,2.00
2022-12-09T11:54:54.113Z,1.90
2022-12-09T11:57:30.104Z,1.90
2022-12-09T12:00:02.597Z,1.80
2022-12-09T12:02:37.697Z,2.00
2022-12-09T12:05:21.686Z,2.10
2022-12-09T12:08:01.868Z,2.20
2022-12-09T12:10:32.557Z,2.20
2022-12-09T12:13:06.757Z,2.30
2022-12-09T12:15:44.770Z,2.30
2022-12-09T12:18:19.024Z,2.40
2022-12-09T12:21:03.730Z,2.40
2022-12-09T12:23:50.385Z,2.50
2022-12-09T12:26:22.885Z,2.50
2022-12-09T12:29:07.815Z,2.50
2022-12-09T12:31:54.920Z,2.40
2022-12-09T12:34:38.854Z,2.60
2022-12-09T12:37:21.292Z,2.60
2022-12-09T12:40:01.376Z,2.60
2022-12-09T12:42:39.746Z,2.40
2022-12-09T12:45:35.103Z,2.10
2022-12-09T12:48:07.268Z,2.30
2022-12-09T12:51:05.337Z,2.30
2022-12-09T12:53:43.037Z,2.40
2022-12-09T12:56:18.114Z,2.30
2022-12-09T12:59:02.246Z,2.40
2022-12-09T13:01:34.328Z,2.50
2022-12-09T13:04:12.673Z,2.50
2022-12-09T13:06:46.748Z,2.50
2022-12-09T13:09:21.080Z,2.50
2022-12-09T13:12:15.111Z,2.30
2022-12-09T13:14:52.534Z,2.10
2022-12-09T13:17:22.990Z,2.10
2022-12-09T13:19:54.198Z,2.00
2022-12-09T13:22:25.466Z,1.90
2022-12-09T13:25:01.921Z,2.00
2022-12-09T13:27:41.801Z,2.10
2022-12-09T13:30:32.412Z,2.10
2022-12-09T13:33:16.776Z,2.10
2022-12-09T13:35:54.850Z,2.20
2022-12-09T13:38:28.595Z,2.30
2022-12-09T13:40:56.562Z,2.50
2022-12-09T13:43:28.408Z,2.70
2022-12-09T13:45:58.737Z,2.50
2022-12-09T13:48:48.568Z,2.60
2022-12-09T13:51:18.331Z,2.60
2022-12-09T13:53:51.135Z,2.70
2022-12-09T13:56:30.599Z,2.80
2022-12-09T13:59:40.128Z,2.70
2022-12-09T14:02:20.008Z,2.70
2022-12-09T14:04:56.245Z,2.60
2022-12-09T14:07:32.130Z,2.60
2022-12-09T14:10:01.456Z,2.70
2022-12-09T14:13:04.883Z,2.60
2022-12-09T14:15:39.575Z,2.70
2022-12-09T14:18:29.576Z,2.80
2022-12-09T14:21:27.999Z,2.70
2022-12-09T14:24:35.289Z,2.90
2022-12-09T14:27:12.338Z,3.00
2022-12-09T14:29:49.086Z,3.00
2022-12-09T14:32:30.204Z,3.00
2022-12-09T14:35:17.093Z,3.00
2022-12-09T14:38:18.490Z,2.80
2022-12-09T14:40:57.828Z,2.90
2022-12-09T14:43:37.816Z,2.90
2022-12-09T14:46:08.743Z,2.70
2022-12-09T14:48:40.916Z,2.80
2022-12-09T14:51:17.448Z,2.70
2022-12-09T14:53:49.364Z,2.70
2022-12-09T14:56:20.538Z,2.80
2022-12-09T14:58:50.292Z,2.70
2022-12-09T15:01:19.245Z,2.70
2022-12-09T15:03:55.054Z,2.40
2022-12-09T15:06:26.733Z,2.40
2022-12-09T15:08:59.116Z,2.30
2022-12-09T15:11:31.630Z,2.30
2022-12-09T15:14:23.573Z,2.50
2022-12-09T15:16:52.337Z,2.30
2022-12-09T15:19:58.168Z,2.50
2022-12-09T15:22:21.545Z,2.40
2022-12-09T15:24:51.118Z,2.60
2022-12-09T15:27:21.957Z,2.60
2022-12-09T15:29:50.617Z,2.70
2022-12-09T15:32:26.394Z,2.70
2022-12-09T15:34:55.997Z,2.60
2022-12-09T15:37:27.538Z,2.50
2022-12-09T15:40:01.478Z,2.40
2022-12-09T15:42:33.403Z,2.50
2022-12-09T15:45:09.182Z,2.50
2022-12-09T15:47:41.194Z,2.50
2022-12-09T15:50:18.422Z,2.60
2022-12-09T15:52:51.323Z,2.50
2022-12-09T15:55:21.631Z,2.70
2022-12-09T15:57:52.366Z,2.70
2022-12-09T16:00:20.932Z,2.60
2022-12-09T16:02:50.752Z,2.70
2022-12-09T16:05:26.045Z,2.70
2022-12-09T16:07:56.624Z,2.70
2022-12-09T16:10:27.133Z,2.70
2022-12-09T16:13:09.588Z,2.70
2022-12-09T16:15:45.981Z,2.80
2022-12-09T16:18:18.375Z,2.70
2022-12-09T16:21:01.919Z,2.80
2022-12-09T16:23:29.969Z,2.70
2022-12-09T16:26:06.700Z,2.70
2022-12-09T16:28:35.164Z,2.70
2022-12-09T16:31:17.766Z,2.60
2022-12-09T16:33:49.280Z,2.70
2022-12-09T16:36:21.738Z,2.70
2022-12-09T16:39:26.284Z,2.70
2022-12-09T16:42:02.949Z,2.80
2022-12-09T16:44:34.814Z,2.70
2022-12-09T16:47:14.507Z,2.50
2022-12-09T16:49:45.510Z,2.60
2022-12-09T16:52:17.322Z,2.40
2022-12-09T16:54:47.162Z,2.60
2022-12-09T16:57:21.427Z,2.70
2022-12-09T16:59:49.599Z,2.80
2022-12-09T17:02:23.426Z,2.80
2022-12-09T17:04:52.729Z,2.90
2022-12-09T17:07:21.986Z,3.10
2022-12-09T17:09:50.250Z,3.20
2022-12-09T17:12:18.261Z,3.10
2022-12-09T17:14:46.356Z,3.00
2022-12-09T17:17:14.388Z,3.00
2022-12-09T17:19:42.951Z,3.00
2022-12-09T17:22:11.089Z,3.00
2022-12-09T17:24:40.862Z,3.00
2022-12-09T17:27:08.841Z,2.80
2022-12-09T17:29:37.196Z,2.80
2022-12-09T17:32:05.824Z,3.00
2022-12-09T17:34:34.188Z,2.90
2022-12-09T17:37:02.271Z,3.00
2022-12-09T17:39:30.196Z,3.00
2022-12-09T17:41:59.625Z,3.00
2022-12-09T17:44:27.503Z,3.00
2022-12-09T17:47:02.041Z,3.00
2022-12-09T17:49:33.657Z,3.00
2022-12-09T17:52:07.816Z,3.00
2022-12-09T17:54:35.936Z,3.00
2022-12-09T17:57:05.278Z,3.00
2022-12-09T17:59:33.225Z,2.80
2022-12-09T18:02:03.594Z,2.90
2022-12-09T18:04:32.231Z,3.10
2022-12-09T18:07:00.266Z,3.20
2022-12-09T18:09:28.117Z,3.20
2022-12-09T18:11:56.201Z,3.40
2022-12-09T18:14:25.643Z,3.40
2022-12-09T18:16:53.676Z,3.30
2022-12-09T18:19:23.691Z,3.20
2022-12-09T18:21:52.006Z,3.20
2022-12-09T18:24:20.045Z,3.10
2022-12-09T18:26:48.914Z,3.10
2022-12-09T18:29:16.939Z,3.20
2022-12-09T18:31:49.581Z,3.20
2022-12-09T18:34:20.954Z,3.30
2022-12-09T18:36:48.865Z,3.40
2022-12-09T18:39:16.990Z,3.50
2022-12-09T18:41:46.008Z,3.40
2022-12-09T18:44:15.441Z,3.40
2022-12-09T18:46:47.750Z,3.20
2022-12-09T18:49:18.225Z,3.20
2022-12-09T18:51:47.682Z,3.10
2022-12-09T18:54:17.458Z,3.20
2022-12-09T18:56:45.735Z,3.10
2022-12-09T18:59:14.108Z,3.00
2022-12-09T19:01:43.874Z,2.90
2022-12-09T19:04:15.817Z,2.90
2022-12-09T19:06:45.956Z,2.90
2022-12-09T19:09:16.422Z,3.00
2022-12-09T19:11:46.047Z,3.10
2022-12-09T19:14:15.039Z,3.10
2022-12-09T19:16:43.765Z,3.20
2022-12-09T19:19:14.214Z,3.20
2022-12-09T19:21:42.633Z,3.20
2022-12-09T19:24:15.377Z,3.30
2022-12-09T19:26:43.812Z,3.30
2022-12-09T19:29:13.144Z,3.30
2022-12-09T19:31:42.915Z,3.40
2022-12-09T19:34:15.073Z,3.40
2022-12-09T19:36:44.178Z,3.40
2022-12-09T19:39:13.884Z,3.30
2022-12-09T19:41:43.284Z,3.40
2022-12-09T19:44:15.302Z,3.40
2022-12-09T19:46:46.897Z,3.40
2022-12-09T19:49:23.260Z,3.40
2022-12-09T19:54:43.561Z,3.30
2022-12-09T19:57:11.751Z,3.30
2022-12-09T19:59:39.797Z,3.30
2022-12-09T20:02:11.869Z,3.20
2022-12-09T20:04:49.891Z,3.20
2022-12-09T20:07:18.340Z,3.30
2022-12-09T20:09:46.740Z,3.20
2022-12-09T20:12:14.977Z,3.30
2022-12-09T20:14:43.114Z,3.40
2022-12-09T20:17:11.195Z,3.40
2022-12-09T20:19:40.547Z,3.30
2022-12-09T20:22:08.658Z,3.40
2022-12-09T20:24:36.595Z,3.40
2022-12-09T20:27:04.574Z,3.30
2022-12-09T20:29:37.505Z,3.30
2022-12-09T20:32:06.958Z,3.40
2022-12-09T20:34:35.139Z,3.40
2022-12-09T20:37:04.691Z,3.40
2022-12-09T20:39:32.775Z,3.30
2022-12-09T20:42:01.051Z,3.20
2022-12-09T20:44:29.086Z,3.40
2022-12-09T20:46:57.732Z,3.50
2022-12-09T20:49:27.598Z,3.40
2022-12-09T20:51:55.855Z,3.30
2022-12-09T20:54:25.199Z,3.40
2022-12-09T20:56:54.858Z,3.40
2022-12-09T20:59:22.894Z,3.40
2022-12-09T21:01:50.781Z,3.50
2022-12-09T21:04:19.273Z,3.50
2022-12-09T21:06:47.607Z,3.50
2022-12-09T21:09:20.002Z,3.40
2022-12-09T21:11:51.033Z,3.30
2022-12-09T21:14:19.215Z,3.10
2022-12-09T21:16:50.714Z,3.10
2022-12-09T21:19:25.054Z,3.00
2022-12-09T21:21:54.575Z,3.10
2022-12-09T21:24:24.142Z,3.10
2022-12-09T21:26:56.181Z,3.10
2022-12-09T21:29:31.194Z,3.20
2022-12-09T21:31:59.718Z,3.20
2022-12-09T21:34:27.664Z,3.30
2022-12-09T21:36:55.533Z,3.30
2022-12-09T21:39:23.581Z,3.40
2022-12-09T21:41:53.419Z,3.20
2022-12-09T21:44:22.582Z,3.20
2022-12-09T21:46:51.211Z,3.30
2022-12-09T21:49:19.140Z,3.10
2022-12-09T21:51:47.606Z,3.20
2022-12-09T21:54:15.600Z,3.20
2022-12-09T21:56:43.530Z,3.20
2022-12-09T21:59:14.427Z,3.30
2022-12-09T22:01:43.991Z,3.40
2022-12-09T22:04:15.103Z,3.50
2022-12-09T22:06:46.124Z,3.50
2022-12-09T22:09:14.499Z,3.40
2022-12-09T22:11:42.431Z,3.30
2022-12-09T22:14:13.245Z,3.40
2022-12-09T22:16:43.628Z,3.50
2022-12-09T22:19:15.335Z,3.60
2022-12-09T22:21:43.241Z,3.60
2022-12-09T22:24:12.991Z,3.50
2022-12-09T22:26:43.602Z,3.50
2022-12-09T22:29:14.701Z,3.40
2022-12-09T22:31:43.969Z,3.20
2022-12-09T22:34:14.690Z,3.10
2022-12-09T22:36:42.958Z,3.10
2022-12-09T22:39:14.170Z,3.10
2022-12-09T22:41:43.557Z,3.20
2022-12-09T22:44:15.290Z,3.30
2022-12-09T22:46:43.727Z,3.40
2022-12-09T22:49:13.394Z,3.40
2022-12-09T22:51:41.903Z,3.40
2022-12-09T22:54:11.067Z,3.40
2022-12-09T22:56:41.162Z,3.50
2022-12-09T22:59:09.315Z,3.40
2022-12-09T23:01:38.921Z,3.30
2022-12-09T23:04:08.629Z,3.40
2022-12-09T23:06:38.354Z,3.30
2022-12-09T23:09:06.593Z,3.40
2022-12-09T23:11:34.746Z,3.40
2022-12-09T23:14:02.752Z,3.50
2022-12-09T23:16:31.304Z,3.50
2022-12-09T23:19:00.853Z,3.40
2022-12-09T23:21:30.516Z,3.40
2022-12-09T23:24:00.669Z,3.50
2022-12-09T23:26:31.588Z,3.50
2022-12-09T23:29:01.447Z,3.40
2022-12-09T23:31:32.627Z,3.10
2022-12-09T23:34:03.601Z,3.10
2022-12-09T23:36:33.310Z,3.20
2022-12-09T23:39:02.369Z,3.40
2022-12-09T23:41:31.197Z,3.40
2022-12-09T23:43:59.480Z,3.50
2022-12-09T23:46:31.105Z,3.40
2022-12-09T23:48:59.241Z,3.20
2022-12-09T23:51:30.436Z,3.20
2022-12-09T23:53:59.667Z,3.30
2022-12-09T23:56:30.096Z,3.20
2022-12-09T23:58:59.634Z,3.20
